Time;durP1;ratioP1;P1;durP2;ratioP2;P2;SDS_P1;SDS_P2;PMS_P1;PMS_P2;Temp;Humidity;BMP_temperature;BMP_pressure;BME280_temperature;BME280_humidity;BME280_pressure;Samples;Min_cycle;Max_cycle;Signal;HPM_P1;HPM_P2
2022/11/08 00:03:53;;;;;;;16.35;3.22;;;14.50;99.90;;;;;;5054838;28;20037;-63
2022/11/08 00:14:36;;;;;;;14.93;3.30;;;14.40;99.90;;;;;;5053422;28;20451;-62
2022/11/08 00:17:03;;;;;;;14.10;3.15;;;14.40;99.90;;;;;;5055071;28;20075;-65
2022/11/08 00:19:29;;;;;;;18.00;3.33;;;14.40;99.90;;;;;;5054542;28;20500;-63
2022/11/08 00:21:56;;;;;;;16.73;3.50;;;14.40;99.90;;;;;;5054340;28;20507;-65
2022/11/08 00:24:23;;;;;;;14.82;4.10;;;14.40;99.90;;;;;;5054218;28;20040;-64
2022/11/08 00:26:49;;;;;;;14.55;3.17;;;14.40;99.90;;;;;;5052766;28;20163;-65
2022/11/08 00:29:16;;;;;;;15.18;3.20;;;14.30;99.90;;;;;;5054539;28;20546;-63
2022/11/08 00:31:43;;;;;;;14.70;3.03;;;14.30;99.90;;;;;;5054793;28;20041;-63
2022/11/08 00:34:10;;;;;;;14.57;3.17;;;14.30;99.90;;;;;;5054551;28;20080;-63
2022/11/08 00:36:36;;;;;;;13.07;3.50;;;14.30;99.90;;;;;;5051692;28;20041;-64
2022/11/08 00:39:03;;;;;;;19.60;3.40;;;14.30;99.90;;;;;;5034624;28;20125;-66
2022/11/08 00:41:30;;;;;;;16.52;3.45;;;14.30;99.90;;;;;;5034494;28;20083;-62
2022/11/08 00:43:56;;;;;;;20.23;4.93;;;14.30;99.90;;;;;;5032699;28;20045;-62
2022/11/08 00:46:23;;;;;;;17.23;3.42;;;14.20;99.90;;;;;;5034610;28;20469;-61
2022/11/08 00:48:50;;;;;;;19.48;3.58;;;14.30;99.90;;;;;;5049560;28;20048;-64
2022/11/08 00:51:17;;;;;;;16.65;3.10;;;14.30;99.90;;;;;;5033056;28;20504;-64
2022/11/08 00:53:43;;;;;;;14.35;3.38;;;14.30;99.90;;;;;;5033021;28;20045;-62
2022/11/08 00:56:10;;;;;;;20.77;3.63;;;14.20;99.90;;;;;;5044152;28;20083;-63
2022/11/08 00:58:37;;;;;;;18.98;4.18;;;14.30;99.90;;;;;;5036485;28;20048;-62
2022/11/08 01:01:04;;;;;;;19.52;3.70;;;14.30;99.90;;;;;;5034128;28;20120;-64
2022/11/08 01:03:30;;;;;;;20.13;3.35;;;14.30;99.90;;;;;;5033141;28;20045;-64
2022/11/08 01:05:57;;;;;;;19.98;3.28;;;14.30;99.90;;;;;;5034091;28;20431;-63
2022/11/08 01:08:24;;;;;;;14.07;3.40;;;14.30;99.90;;;;;;5052212;28;20120;-65
2022/11/08 01:10:51;;;;;;;19.42;4.20;;;14.20;99.90;;;;;;5053929;28;20048;-64
2022/11/08 01:13:17;;;;;;;17.35;4.13;;;14.30;99.90;;;;;;5052728;28;20048;-64
2022/11/08 01:15:44;;;;;;;16.08;3.65;;;14.30;99.90;;;;;;5054019;28;20037;-64
2022/11/08 01:18:11;;;;;;;17.27;4.50;;;14.30;99.90;;;;;;5053885;28;20540;-64
2022/11/08 01:20:38;;;;;;;13.18;3.70;;;14.30;99.90;;;;;;5053796;28;20484;-64
2022/11/08 01:23:05;;;;;;;15.35;3.85;;;14.30;99.90;;;;;;5053774;28;20112;-64
2022/11/08 01:25:31;;;;;;;18.95;4.25;;;14.30;99.90;;;;;;5046558;28;20116;-61
2022/11/08 01:27:58;;;;;;;14.60;2.80;;;14.30;99.90;;;;;;5036417;28;20099;-63
2022/11/08 01:30:25;;;;;;;14.18;3.50;;;14.30;99.90;;;;;;5032554;28;20480;-64
2022/11/08 01:32:51;;;;;;;14.38;3.75;;;14.30;99.90;;;;;;5034017;28;20045;-65
2022/11/08 01:35:18;;;;;;;13.68;3.30;;;14.30;99.90;;;;;;5032782;28;20128;-62
2022/11/08 01:37:45;;;;;;;16.92;3.40;;;14.30;99.90;;;;;;5033821;28;20096;-62
2022/11/08 01:40:12;;;;;;;14.15;3.90;;;14.30;99.90;;;;;;5039945;28;20025;-63
2022/11/08 01:42:38;;;;;;;14.60;3.67;;;14.20;99.90;;;;;;5053754;28;20044;-65
2022/11/08 01:45:05;;;;;;;14.38;2.78;;;14.20;99.90;;;;;;5048975;28;20121;-61
2022/11/08 01:47:32;;;;;;;13.75;3.35;;;14.30;99.90;;;;;;5051645;28;20071;-64
2022/11/08 01:49:58;;;;;;;12.88;3.22;;;14.30;99.90;;;;;;5033750;28;20168;-63
2022/11/08 01:52:25;;;;;;;12.93;2.67;;;14.30;99.90;;;;;;5033729;28;20039;-64
2022/11/08 01:54:52;;;;;;;13.07;3.60;;;14.30;99.90;;;;;;5033219;28;20124;-63
2022/11/08 01:57:18;;;;;;;16.50;3.40;;;14.30;99.90;;;;;;5033888;28;20080;-63
2022/11/08 01:59:45;;;;;;;10.55;3.13;;;14.40;99.90;;;;;;5033709;28;20411;-65
2022/11/08 02:02:12;;;;;;;14.52;3.38;;;14.40;99.90;;;;;;5033515;28;20048;-62
2022/11/08 02:04:39;;;;;;;13.55;3.30;;;14.40;99.90;;;;;;5043367;28;20041;-61
2022/11/08 02:07:05;;;;;;;16.13;3.53;;;14.40;99.90;;;;;;5053466;28;20484;-61
2022/11/08 02:09:32;;;;;;;11.07;3.00;;;14.40;99.90;;;;;;5052105;28;20049;-62
2022/11/08 02:11:59;;;;;;;11.98;3.40;;;14.40;99.90;;;;;;5053700;28;20037;-64
2022/11/08 02:14:25;;;;;;;13.05;3.65;;;14.40;99.90;;;;;;5052523;28;20076;-63
2022/11/08 02:16:52;;;;;;;13.52;3.35;;;14.40;99.90;;;;;;5053219;28;20124;-64
2022/11/08 02:19:19;;;;;;;14.32;2.95;;;14.40;99.90;;;;;;5037535;28;20074;-63
2022/11/08 02:21:46;;;;;;;12.05;2.78;;;14.40;99.90;;;;;;5033729;28;20095;-63
2022/11/08 02:24:13;;;;;;;11.23;2.92;;;14.50;99.90;;;;;;5033195;28;20073;-64
2022/11/08 02:26:39;;;;;;;16.27;4.25;;;14.50;99.90;;;;;;5033537;28;20056;-63
2022/11/08 02:29:06;;;;;;;13.75;3.03;;;14.50;99.90;;;;;;5045977;28;20045;-62
2022/11/08 02:31:33;;;;;;;14.77;3.50;;;14.50;99.90;;;;;;5053427;28;20124;-64
2022/11/08 02:33:59;;;;;;;12.48;3.13;;;14.50;99.90;;;;;;5052942;28;20563;-63
2022/11/08 02:36:26;;;;;;;15.88;3.95;;;14.40;99.90;;;;;;5053015;28;20469;-62
2022/11/08 02:38:53;;;;;;;12.45;2.92;;;14.40;99.90;;;;;;5041928;28;20046;-61
2022/11/08 02:41:20;;;;;;;15.05;3.10;;;14.40;99.90;;;;;;5033030;28;20088;-63
2022/11/08 02:43:46;;;;;;;11.50;3.00;;;14.40;99.90;;;;;;5039168;28;20103;-61
2022/11/08 02:46:13;;;;;;;11.27;2.40;;;14.40;99.90;;;;;;5054821;28;20047;-63
2022/11/08 02:48:40;;;;;;;12.70;2.78;;;14.40;99.90;;;;;;5047376;28;20556;-64
2022/11/08 02:51:06;;;;;;;9.63;2.70;;;14.50;99.90;;;;;;5036884;28;20045;-64
2022/11/08 02:53:33;;;;;;;11.15;2.45;;;14.50;99.90;;;;;;5036597;28;20128;-62
2022/11/08 02:56:00;;;;;;;13.73;3.00;;;14.50;99.90;;;;;;5036792;28;20073;-63
2022/11/08 02:58:26;;;;;;;12.77;3.10;;;14.50;99.90;;;;;;5036442;28;20440;-63
2022/11/08 03:00:53;;;;;;;13.27;3.10;;;14.60;99.90;;;;;;5036357;28;20038;-62
2022/11/08 03:03:20;;;;;;;10.82;3.05;;;14.60;99.90;;;;;;5036251;28;20046;-63
2022/11/08 03:05:47;;;;;;;10.05;2.60;;;14.60;99.90;;;;;;5035953;28;20068;-63
2022/11/08 03:08:14;;;;;;;12.32;3.10;;;14.60;99.90;;;;;;5053541;28;20033;-64
2022/11/08 03:10:41;;;;;;;10.48;2.58;;;14.60;99.90;;;;;;5055981;28;20044;-63
2022/11/08 03:13:08;;;;;;;9.02;2.50;;;14.60;99.90;;;;;;5055232;28;20044;-64
2022/11/08 03:15:34;;;;;;;9.73;2.53;;;14.60;99.90;;;;;;5055935;28;20484;-65
2022/11/08 03:18:01;;;;;;;10.07;2.60;;;14.60;99.90;;;;;;5051299;28;20492;-63
2022/11/08 03:20:28;;;;;;;11.95;2.78;;;14.60;99.90;;;;;;5034243;28;20057;-62
2022/11/08 03:22:58;;;;;;;11.32;2.90;;;14.50;99.90;;;;;;5035885;28;20103;-62
2022/11/08 03:25:25;;;;;;;11.90;2.97;;;14.50;99.90;;;;;;5036102;28;20076;-64
2022/11/08 03:27:52;;;;;;;14.02;3.20;;;14.50;99.90;;;;;;5036945;28;20447;-62
2022/11/08 03:30:19;;;;;;;10.25;2.58;;;14.50;99.90;;;;;;5055476;28;20091;-64
2022/11/08 03:32:45;;;;;;;11.13;2.75;;;14.50;99.90;;;;;;5055347;28;20091;-63
2022/11/08 03:35:12;;;;;;;14.35;3.28;;;14.40;99.90;;;;;;5055444;28;20052;-62
2022/11/08 03:37:39;;;;;;;10.43;2.95;;;14.40;99.90;;;;;;5055408;28;20079;-63
2022/11/08 03:40:05;;;;;;;13.52;2.80;;;14.40;99.90;;;;;;5053623;28;20041;-61
2022/11/08 03:42:32;;;;;;;11.50;2.50;;;14.40;99.90;;;;;;5055008;28;20048;-64
2022/11/08 03:44:59;;;;;;;9.65;2.35;;;14.30;99.90;;;;;;5054504;28;20052;-64
2022/11/08 03:47:25;;;;;;;9.82;2.80;;;14.30;99.90;;;;;;5055851;28;20527;-64
2022/11/08 03:49:52;;;;;;;10.23;2.42;;;14.30;99.90;;;;;;5037842;28;20037;-64
2022/11/08 03:52:19;;;;;;;11.43;2.90;;;14.30;99.90;;;;;;5035773;28;20073;-63
2022/11/08 03:54:46;;;;;;;8.23;2.60;;;14.30;99.90;;;;;;5035207;28;20037;-63
2022/11/08 03:57:12;;;;;;;11.57;3.25;;;14.30;99.90;;;;;;5034491;28;20037;-63
2022/11/08 03:59:39;;;;;;;10.48;2.63;;;14.20;99.90;;;;;;5044695;28;20472;-62
2022/11/08 04:02:06;;;;;;;9.93;2.10;;;14.20;99.90;;;;;;5054626;28;20467;-64
2022/11/08 04:04:32;;;;;;;8.27;2.30;;;14.30;99.90;;;;;;5039363;28;20076;-63
2022/11/08 04:06:59;;;;;;;11.13;2.40;;;14.20;99.90;;;;;;5035502;28;20447;-64
2022/11/08 04:09:26;;;;;;;12.40;2.60;;;14.20;99.90;;;;;;5035311;28;20103;-63
2022/11/08 04:21:17;;;;;;;8.40;2.05;;;14.00;99.90;;;;;;5053953;28;20083;-64
2022/11/08 04:22:55;;;;;;;9.45;2.20;;;14.00;99.90;;;;;;5035342;28;20080;-63
2022/11/08 04:25:22;;;;;;;9.70;3.00;;;14.00;99.90;;;;;;5034618;28;20539;-64
2022/11/08 04:27:49;;;;;;;10.32;2.40;;;14.00;99.90;;;;;;5049198;28;20040;-63
2022/11/08 04:30:16;;;;;;;13.98;2.97;;;13.90;99.90;;;;;;5035124;28;20041;-62
2022/11/08 04:32:43;;;;;;;9.85;2.47;;;14.00;99.90;;;;;;5048927;28;20033;-64
2022/11/08 04:35:09;;;;;;;10.60;2.90;;;13.90;99.90;;;;;;5034207;28;20484;-64
2022/11/08 04:37:36;;;;;;;12.73;2.80;;;14.00;99.90;;;;;;5047169;28;20037;-64
2022/11/08 04:40:03;;;;;;;8.55;2.65;;;13.90;99.90;;;;;;5054855;28;20071;-61
2022/11/08 04:42:29;;;;;;;10.98;2.35;;;14.00;99.90;;;;;;5054607;28;20132;-64
2022/11/08 04:44:56;;;;;;;8.15;2.08;;;13.90;99.90;;;;;;5053210;28;20469;-63
2022/11/08 04:47:23;;;;;;;10.68;2.80;;;13.90;99.90;;;;;;5052953;28;20412;-63
2022/11/08 04:49:49;;;;;;;8.15;2.33;;;13.90;99.90;;;;;;5034828;28;20362;-63
2022/11/08 04:52:16;;;;;;;8.10;2.55;;;13.90;99.90;;;;;;5033360;28;20099;-62
2022/11/08 04:54:43;;;;;;;16.00;2.67;;;13.90;99.90;;;;;;5034173;28;20052;-65
2022/11/08 04:57:10;;;;;;;10.27;2.20;;;13.90;99.90;;;;;;5034036;28;20099;-63
2022/11/08 04:59:36;;;;;;;10.10;2.13;;;13.80;99.90;;;;;;5034441;28;20120;-64
2022/11/08 05:02:03;;;;;;;13.20;2.33;;;13.80;99.90;;;;;;5036261;28;20103;-63
2022/11/08 05:04:30;;;;;;;16.40;2.97;;;13.80;99.90;;;;;;5037372;28;20033;-62
2022/11/08 05:06:57;;;;;;;11.93;2.65;;;13.70;99.90;;;;;;5034056;28;20056;-65
2022/11/08 05:09:24;;;;;;;10.38;2.10;;;13.70;99.90;;;;;;5034501;28;20063;-63
2022/11/08 05:11:50;;;;;;;10.43;2.38;;;13.70;99.90;;;;;;5050138;28;20044;-65
2022/11/08 05:14:17;;;;;;;7.40;2.20;;;13.70;99.90;;;;;;5050844;28;20049;-65
2022/11/08 05:16:44;;;;;;;9.30;2.10;;;13.70;99.90;;;;;;5043517;28;20385;-62
2022/11/08 05:19:10;;;;;;;9.55;2.42;;;13.60;99.90;;;;;;5053457;28;20501;-63
2022/11/08 05:24:24;;;;;;;11.05;2.00;;;13.60;99.90;;;;;;5037574;28;20041;-64
2022/11/08 05:26:51;;;;;;;6.38;1.60;;;13.60;99.90;;;;;;5033670;28;20417;-62
2022/11/08 05:29:18;;;;;;;9.60;1.90;;;13.60;99.90;;;;;;5033812;28;20104;-63
2022/11/08 05:31:44;;;;;;;9.88;2.08;;;13.60;99.90;;;;;;5039008;28;20730;-63
2022/11/08 05:34:11;;;;;;;9.07;1.70;;;13.50;99.90;;;;;;5036723;28;20048;-62
2022/11/08 05:36:38;;;;;;;9.57;1.75;;;13.50;99.90;;;;;;5033796;28;20137;-63
2022/11/08 05:39:04;;;;;;;9.18;1.90;;;13.40;99.90;;;;;;5033825;28;20103;-61
2022/11/08 05:41:31;;;;;;;6.78;1.52;;;13.40;99.90;;;;;;5042571;28;20099;-63
2022/11/08 05:43:58;;;;;;;7.97;1.60;;;13.30;99.90;;;;;;5043356;28;20369;-64
2022/11/08 05:46:24;;;;;;;6.55;1.60;;;13.30;99.90;;;;;;5033846;28;20080;-62
2022/11/08 05:48:51;;;;;;;9.38;1.77;;;13.30;99.90;;;;;;5033804;28;20076;-62
2022/11/08 05:51:18;;;;;;;8.30;1.80;;;13.30;99.90;;;;;;5034111;28;20373;-65
2022/11/08 05:53:46;;;;;;;8.90;1.80;;;13.20;99.90;;;;;;5034424;28;20053;-64
2022/11/08 05:56:12;;;;;;;10.88;1.98;;;13.20;99.90;;;;;;5034548;28;20128;-63
2022/11/08 05:58:39;;;;;;;9.68;1.83;;;13.20;99.90;;;;;;5034949;28;20033;-62
2022/11/08 06:01:06;;;;;;;8.00;1.73;;;13.20;99.90;;;;;;5035372;28;20048;-62
2022/11/08 06:03:32;;;;;;;7.22;1.60;;;13.20;99.90;;;;;;5041180;28;20075;-63
2022/11/08 06:05:59;;;;;;;9.52;2.00;;;13.20;99.90;;;;;;5039034;28;20045;-67
2022/11/08 06:08:26;;;;;;;6.90;1.83;;;13.20;99.90;;;;;;5036496;28;20081;-65
2022/11/08 06:10:53;;;;;;;10.98;1.80;;;13.20;99.90;;;;;;5037855;28;20091;-66
2022/11/08 06:13:19;;;;;;;8.45;2.15;;;13.20;99.90;;;;;;5033605;28;20049;-64
2022/11/08 06:15:46;;;;;;;12.55;1.80;;;13.20;99.90;;;;;;5034631;28;20044;-64
2022/11/08 06:18:13;;;;;;;8.80;2.00;;;13.20;99.90;;;;;;5035963;28;20451;-62
2022/11/08 06:20:39;;;;;;;8.98;1.60;;;13.20;99.90;;;;;;5035338;28;20523;-63
2022/11/08 06:23:07;;;;;;;11.98;1.75;;;13.20;99.90;;;;;;5038456;28;20041;-63
2022/11/08 06:25:34;;;;;;;7.57;1.48;;;13.20;99.90;;;;;;5037023;28;20488;-64
2022/11/08 06:28:01;;;;;;;13.70;1.80;;;13.20;99.90;;;;;;5037057;28;20079;-65
2022/11/08 06:30:28;;;;;;;9.93;1.88;;;13.20;99.90;;;;;;5038210;28;20411;-65
2022/11/08 06:32:55;;;;;;;6.40;1.67;;;13.20;99.90;;;;;;5038338;28;20049;-63
2022/11/08 06:35:21;;;;;;;7.68;1.50;;;13.20;99.90;;;;;;5038380;28;20496;-63
2022/11/08 06:37:48;;;;;;;12.18;1.90;;;13.20;99.90;;;;;;5036605;28;20468;-64
2022/11/08 06:40:15;;;;;;;11.55;2.53;;;13.20;99.90;;;;;;5038577;28;20488;-65
2022/11/08 06:42:42;;;;;;;8.15;1.85;;;13.20;99.90;;;;;;5050116;28;20041;-65
2022/11/08 06:45:08;;;;;;;12.90;1.90;;;13.20;99.90;;;;;;5037817;28;20037;-65
2022/11/08 06:47:35;;;;;;;14.52;1.75;;;13.20;99.90;;;;;;5052319;28;20542;-65
2022/11/08 06:50:02;;;;;;;11.75;2.10;;;13.20;99.90;;;;;;5039180;28;20128;-64
2022/11/08 06:52:28;;;;;;;9.50;2.00;;;13.20;99.90;;;;;;5035661;28;20460;-64
2022/11/08 06:54:55;;;;;;;12.20;2.10;;;13.20;99.90;;;;;;5036114;28;20038;-64
2022/11/08 06:57:22;;;;;;;8.25;1.73;;;13.30;99.90;;;;;;5036081;28;20133;-66
2022/11/08 06:59:49;;;;;;;11.40;2.00;;;13.30;99.90;;;;;;5043427;28;20037;-64
2022/11/08 07:02:15;;;;;;;9.63;2.10;;;13.30;99.90;;;;;;5045660;28;20041;-62
2022/11/08 07:04:42;;;;;;;16.95;2.20;;;13.30;99.90;;;;;;5054440;28;20566;-64
2022/11/08 07:07:09;;;;;;;13.35;2.40;;;13.30;99.90;;;;;;5056000;28;20041;-65
2022/11/08 07:09:36;;;;;;;15.25;2.53;;;13.30;99.90;;;;;;5051864;28;20393;-63
2022/11/08 07:12:02;;;;;;;12.88;2.20;;;13.30;99.90;;;;;;5039875;28;20758;-63
2022/11/08 07:14:29;;;;;;;14.57;2.70;;;13.30;99.90;;;;;;5036142;28;20124;-64
2022/11/08 07:16:56;;;;;;;15.68;2.90;;;13.40;99.90;;;;;;5040969;28;20037;-64
2022/11/08 07:19:22;;;;;;;14.75;2.72;;;13.40;99.90;;;;;;5037368;28;20569;-64
2022/11/08 07:21:49;;;;;;;12.10;2.40;;;13.40;99.90;;;;;;5039292;28;20064;-66
2022/11/08 07:24:16;;;;;;;14.48;2.97;;;13.40;99.90;;;;;;5039537;28;20034;-62
2022/11/08 07:26:43;;;;;;;11.75;2.42;;;13.40;99.90;;;;;;5036595;28;20041;-63
2022/11/08 07:29:09;;;;;;;12.48;2.63;;;13.40;99.90;;;;;;5038281;28;20045;-63
2022/11/08 07:31:41;;;;;;;16.05;2.60;;;13.30;99.90;;;;;;5033317;28;20473;-63
2022/11/08 07:34:08;;;;;;;13.13;2.72;;;13.30;99.90;;;;;;5053911;28;20102;-64
2022/11/08 07:36:34;;;;;;;19.55;3.58;;;13.30;99.90;;;;;;5049130;28;20116;-63
2022/11/08 07:39:01;;;;;;;16.55;3.22;;;13.30;99.90;;;;;;5054891;28;20056;-66
2022/11/08 07:41:32;;;;;;;19.50;3.15;;;13.30;99.90;;;;;;5039804;28;20046;-64
2022/11/08 07:43:59;;;;;;;14.88;2.75;;;13.30;99.90;;;;;;5035393;28;20048;-64
2022/11/08 07:46:25;;;;;;;17.63;3.53;;;13.30;99.90;;;;;;5037899;28;20072;-64
2022/11/08 07:48:52;;;;;;;19.08;2.72;;;13.30;99.90;;;;;;5038701;28;20045;-61
2022/11/08 07:51:19;;;;;;;20.30;3.20;;;13.30;99.90;;;;;;5052035;28;20036;-62
2022/11/08 07:53:45;;;;;;;14.43;3.00;;;13.30;99.90;;;;;;5053571;28;20144;-64
2022/11/08 07:56:12;;;;;;;13.15;3.15;;;13.30;99.90;;;;;;5048163;28;20077;-66
2022/11/08 07:58:39;;;;;;;18.60;3.20;;;13.30;99.90;;;;;;5051648;28;20068;-64
2022/11/08 08:01:06;;;;;;;18.17;3.90;;;13.40;99.90;;;;;;5052587;28;20527;-64
2022/11/08 08:03:33;;;;;;;17.55;3.90;;;13.40;99.90;;;;;;5053853;28;20061;-63
2022/11/08 08:05:59;;;;;;;20.95;3.97;;;13.40;99.90;;;;;;5053232;28;20115;-62
2022/11/08 08:08:27;;;;;;;18.42;3.33;;;13.40;99.90;;;;;;5050698;28;20839;-61
2022/11/08 08:10:54;;;;;;;14.93;3.33;;;13.50;99.90;;;;;;5052448;28;20963;-64
2022/11/08 08:13:20;;;;;;;21.77;3.83;;;13.50;99.90;;;;;;5054188;28;20119;-63
2022/11/08 08:15:47;;;;;;;28.35;4.15;;;13.50;99.90;;;;;;5050197;28;20091;-64
2022/11/08 08:18:16;;;;;;;22.00;4.10;;;13.50;99.90;;;;;;5050123;28;20029;-62
2022/11/08 08:20:42;;;;;;;19.98;4.45;;;13.50;99.90;;;;;;5045542;28;20076;-64
2022/11/08 08:23:09;;;;;;;27.85;4.68;;;13.60;99.90;;;;;;5053467;28;20548;-67
2022/11/08 08:25:36;;;;;;;19.17;4.60;;;13.60;99.90;;;;;;5052549;28;20064;-62
2022/11/08 08:28:04;;;;;;;18.13;3.47;;;13.60;99.90;;;;;;5053728;28;20559;-62
2022/11/08 08:30:31;;;;;;;24.30;5.10;;;13.60;99.90;;;;;;5045989;28;20119;-61
2022/11/08 08:32:58;;;;;;;19.80;3.47;;;13.60;99.90;;;;;;5045120;28;20445;-65
2022/11/08 08:35:44;;;;;;;22.60;3.85;;;13.60;99.90;;;;;;5049560;28;20074;-62
2022/11/08 08:38:11;;;;;;;19.80;3.80;;;13.60;99.90;;;;;;5044621;28;20453;-62
2022/11/08 08:40:38;;;;;;;20.25;3.85;;;13.60;99.90;;;;;;5045965;28;20142;-60
2022/11/08 08:43:04;;;;;;;24.65;4.60;;;13.70;99.90;;;;;;5049133;28;20068;-65
2022/11/08 08:45:31;;;;;;;23.92;4.60;;;13.70;99.90;;;;;;5051858;28;21858;-64
2022/11/08 08:47:58;;;;;;;14.23;3.33;;;13.70;99.90;;;;;;5046996;28;20443;-63
2022/11/08 08:50:25;;;;;;;21.45;4.05;;;13.70;99.90;;;;;;5066463;28;20508;-62
2022/11/08 08:52:51;;;;;;;23.30;4.05;;;13.70;99.90;;;;;;5049852;28;20478;-64
2022/11/08 08:55:18;;;;;;;20.95;3.70;;;13.80;99.90;;;;;;5051498;28;20041;-64
2022/11/08 08:57:45;;;;;;;19.70;3.60;;;13.80;99.90;;;;;;5047377;28;20115;-65
2022/11/08 09:00:12;;;;;;;22.48;4.38;;;13.80;99.90;;;;;;5048169;28;20852;-66
2022/11/08 09:02:58;;;;;;;25.75;4.57;;;13.80;99.90;;;;;;5046481;28;20047;-65
2022/11/08 09:05:25;;;;;;;18.35;3.70;;;13.80;99.90;;;;;;5053199;28;20091;-66
2022/11/08 09:07:52;;;;;;;23.83;3.35;;;13.80;99.90;;;;;;5050645;28;20045;-63
2022/11/08 09:10:18;;;;;;;26.60;4.13;;;13.80;99.90;;;;;;5048205;28;20116;-65
2022/11/08 09:12:45;;;;;;;32.60;4.65;;;13.80;99.90;;;;;;5044009;28;20087;-63
2022/11/08 09:15:12;;;;;;;12.55;2.60;;;13.70;99.90;;;;;;5052158;28;20051;-63
2022/11/08 09:17:38;;;;;;;18.27;3.08;;;13.70;99.90;;;;;;5047593;28;20495;-63
2022/11/08 09:20:05;;;;;;;20.75;3.78;;;13.70;99.90;;;;;;5045938;28;20137;-65
2022/11/08 09:22:32;;;;;;;18.15;3.00;;;13.70;99.90;;;;;;5048186;28;20468;-65
2022/11/08 09:24:59;;;;;;;17.02;2.95;;;13.70;99.90;;;;;;5048071;28;20480;-62
2022/11/08 09:27:26;;;;;;;19.02;3.33;;;13.70;99.90;;;;;;5049550;28;20396;-62
2022/11/08 09:29:52;;;;;;;16.75;3.50;;;13.80;99.90;;;;;;5049734;28;20041;-61
2022/11/08 09:32:19;;;;;;;22.85;3.75;;;13.80;99.90;;;;;;5048647;28;20048;-62
2022/11/08 09:35:06;;;;;;;22.25;4.22;;;13.90;99.90;;;;;;5044577;28;20051;-62
2022/11/08 09:37:33;;;;;;;21.80;3.83;;;13.90;99.90;;;;;;5045413;28;20045;-62
2022/11/08 09:39:59;;;;;;;19.80;3.10;;;14.00;99.90;;;;;;5049657;28;20095;-63
2022/11/08 09:42:26;;;;;;;18.42;3.85;;;14.00;99.90;;;;;;5050314;28;20037;-64
2022/11/08 09:44:53;;;;;;;20.40;3.88;;;14.10;99.90;;;;;;5049195;28;20458;-62
2022/11/08 09:47:19;;;;;;;16.88;3.20;;;14.20;99.90;;;;;;5046029;28;20076;-65
2022/11/08 09:49:46;;;;;;;23.88;3.65;;;14.20;99.90;;;;;;5045807;28;20650;-63
2022/11/08 09:52:13;;;;;;;15.90;3.28;;;14.30;99.90;;;;;;5046485;28;20554;-64
2022/11/08 09:54:40;;;;;;;15.95;3.42;;;14.40;99.90;;;;;;5046003;28;20037;-65
2022/11/08 09:57:06;;;;;;;17.70;3.65;;;14.40;99.90;;;;;;5051502;28;20372;-65
2022/11/08 09:59:33;;;;;;;19.98;3.58;;;14.50;99.90;;;;;;5055360;28;20098;-65
2022/11/08 10:02:00;;;;;;;16.30;2.85;;;14.50;99.90;;;;;;5054374;28;20102;-65
2022/11/08 10:04:26;;;;;;;21.85;4.07;;;14.60;99.90;;;;;;5053285;28;20510;-65
2022/11/08 10:06:53;;;;;;;16.05;2.92;;;14.60;99.90;;;;;;5052158;28;20447;-66
2022/11/08 10:09:27;;;;;;;17.63;3.65;;;14.60;99.90;;;;;;5046061;28;20103;-64
2022/11/08 10:11:54;;;;;;;15.98;3.28;;;14.70;99.90;;;;;;5050979;28;20037;-64
2022/11/08 10:14:20;;;;;;;16.95;3.15;;;14.70;99.90;;;;;;5050013;28;20523;-66
2022/11/08 10:16:47;;;;;;;13.45;3.03;;;14.70;99.90;;;;;;5048134;28;20049;-65
2022/11/08 10:19:14;;;;;;;12.38;3.30;;;14.70;99.90;;;;;;5054118;28;20049;-63
2022/11/08 10:21:41;;;;;;;17.42;3.22;;;14.70;99.90;;;;;;5055097;28;20115;-66
2022/11/08 10:24:08;;;;;;;21.55;3.40;;;14.70;99.90;;;;;;5047284;28;20103;-65
2022/11/08 10:26:34;;;;;;;13.35;2.47;;;14.70;99.90;;;;;;5049631;28;20045;-64
2022/11/08 10:29:01;;;;;;;12.45;2.60;;;14.60;99.90;;;;;;5053630;28;20076;-65
2022/11/08 10:31:28;;;;;;;13.25;2.95;;;14.50;99.90;;;;;;5055353;28;20422;-65
2022/11/08 10:33:55;;;;;;;15.13;4.20;;;14.50;99.90;;;;;;5054025;28;20498;-65
2022/11/08 10:36:21;;;;;;;14.23;3.58;;;14.40;99.90;;;;;;5046946;28;20048;-66
2022/11/08 10:38:48;;;;;;;10.55;2.67;;;14.40;99.90;;;;;;5041241;28;20541;-60
2022/11/08 10:41:15;;;;;;;15.98;2.55;;;14.30;99.90;;;;;;5043268;28;20364;-62
2022/11/08 10:43:42;;;;;;;12.35;2.33;;;14.30;99.90;;;;;;5047845;28;20041;-63
2022/11/08 10:46:08;;;;;;;14.00;2.30;;;14.30;99.90;;;;;;5054666;28;20037;-62
2022/11/08 10:48:38;;;;;;;14.15;2.70;;;14.30;99.90;;;;;;5053996;28;20044;-64
2022/11/08 10:51:05;;;;;;;16.45;3.05;;;14.40;99.90;;;;;;5052263;28;20140;-63
2022/11/08 10:53:33;;;;;;;17.95;3.33;;;14.40;99.90;;;;;;5053844;28;20098;-65
2022/11/08 10:56:00;;;;;;;15.00;3.90;;;14.40;99.90;;;;;;5052109;28;20041;-62
2022/11/08 10:58:27;;;;;;;15.52;3.17;;;14.40;99.90;;;;;;5052208;28;20120;-62
2022/11/08 11:00:54;;;;;;;15.63;2.88;;;14.50;99.90;;;;;;5054082;28;20048;-64
2022/11/08 11:03:22;;;;;;;18.33;3.45;;;14.50;99.90;;;;;;5052473;28;20471;-64
2022/11/08 11:05:48;;;;;;;17.48;3.75;;;14.60;99.90;;;;;;5051104;28;20049;-63
2022/11/08 11:08:15;;;;;;;15.98;2.90;;;14.70;99.90;;;;;;5054988;28;20090;-61
2022/11/08 11:10:42;;;;;;;17.80;3.28;;;14.80;99.90;;;;;;5053310;28;20068;-64
2022/11/08 11:13:09;;;;;;;21.00;3.42;;;14.80;99.90;;;;;;5054872;28;20095;-62
2022/11/08 11:15:36;;;;;;;15.57;3.08;;;14.80;99.90;;;;;;5054572;28;20051;-63
2022/11/08 11:18:02;;;;;;;18.40;3.05;;;14.80;99.90;;;;;;5049666;28;20034;-62
2022/11/08 11:20:30;;;;;;;15.93;2.90;;;14.80;99.90;;;;;;5054606;28;20056;-61
2022/11/08 11:22:56;;;;;;;19.73;3.75;;;14.80;99.90;;;;;;5054775;28;20045;-61
2022/11/08 11:25:23;;;;;;;16.88;4.10;;;14.80;99.90;;;;;;5054826;28;20084;-63
2022/11/08 11:27:50;;;;;;;16.05;2.95;;;14.80;99.90;;;;;;5054706;28;20480;-64
2022/11/08 11:30:17;;;;;;;17.92;3.45;;;14.70;99.90;;;;;;5054760;28;20047;-62
2022/11/08 11:32:43;;;;;;;17.65;3.80;;;14.70;99.90;;;;;;5054829;28;20044;-62
2022/11/08 11:35:10;;;;;;;17.88;3.50;;;14.70;99.90;;;;;;5052262;28;20052;-62
2022/11/08 11:37:37;;;;;;;14.52;4.05;;;14.70;99.90;;;;;;5054727;28;20041;-60
2022/11/08 11:40:03;;;;;;;15.10;3.33;;;14.70;99.90;;;;;;5054738;28;20416;-62
2022/11/08 11:42:30;;;;;;;24.02;3.97;;;14.70;99.90;;;;;;5054849;28;20049;-62
2022/11/08 11:45:11;;;;;;;20.60;3.80;;;14.70;99.90;;;;;;5055233;28;20041;-61
2022/11/08 11:47:38;;;;;;;20.55;3.95;;;14.80;99.90;;;;;;5055014;28;20587;-63
2022/11/08 11:50:04;;;;;;;14.40;2.88;;;14.90;99.90;;;;;;5054642;28;20048;-64
2022/11/08 11:52:31;;;;;;;20.88;3.95;;;15.00;99.90;;;;;;5047180;28;20668;-64
2022/11/08 11:54:58;;;;;;;16.30;3.53;;;15.10;99.90;;;;;;5055052;28;20044;-61
2022/11/08 11:57:25;;;;;;;16.83;3.95;;;15.20;99.90;;;;;;5049374;28;20057;-62
2022/11/08 11:59:51;;;;;;;16.08;3.70;;;15.40;99.90;;;;;;5052004;28;20041;-61
2022/11/08 12:02:18;;;;;;;23.23;3.70;;;15.50;99.90;;;;;;5051391;28;20045;-61
2022/11/08 12:04:45;;;;;;;23.23;4.22;;;15.60;99.90;;;;;;5048655;28;20037;-63
2022/11/08 12:07:11;;;;;;;22.63;3.95;;;15.50;99.90;;;;;;5052621;28;20095;-62
2022/11/08 12:09:38;;;;;;;16.45;3.50;;;15.50;99.90;;;;;;5049867;28;20083;-63
2022/11/08 12:12:05;;;;;;;14.93;3.25;;;15.50;99.90;;;;;;5052523;28;20440;-63
2022/11/08 12:14:32;;;;;;;17.00;3.58;;;15.50;99.90;;;;;;5045833;28;20088;-63
2022/11/08 12:16:58;;;;;;;16.50;3.70;;;15.50;99.90;;;;;;5053968;28;20075;-65
2022/11/08 12:19:25;;;;;;;21.25;4.30;;;15.50;99.90;;;;;;5053142;28;20064;-63
2022/11/08 12:21:52;;;;;;;19.27;3.45;;;15.50;99.90;;;;;;5049339;28;20041;-63
2022/11/08 12:24:19;;;;;;;15.40;4.53;;;15.40;99.90;;;;;;5052023;28;20116;-63
2022/11/08 12:26:45;;;;;;;18.67;3.70;;;15.40;99.90;;;;;;5048915;28;20529;-63
2022/11/08 12:29:12;;;;;;;22.35;4.95;;;15.50;99.90;;;;;;5045967;28;20099;-62
2022/11/08 12:31:39;;;;;;;18.63;3.92;;;15.50;99.90;;;;;;5048929;28;20106;-62
2022/11/08 12:34:05;;;;;;;22.73;4.45;;;15.60;99.90;;;;;;5045930;28;20068;-62
2022/11/08 12:36:32;;;;;;;17.38;3.63;;;15.60;99.90;;;;;;5046615;28;20167;-64
2022/11/08 12:38:59;;;;;;;15.18;3.35;;;15.70;99.90;;;;;;5047161;28;20121;-61
2022/11/08 12:41:25;;;;;;;23.20;4.30;;;15.70;99.90;;;;;;5046825;28;20124;-64
2022/11/08 12:43:52;;;;;;;19.00;3.97;;;15.60;99.90;;;;;;5040823;28;20508;-62
2022/11/08 12:46:19;;;;;;;16.55;4.10;;;15.50;99.90;;;;;;5052184;28;20056;-64
2022/11/08 12:48:47;;;;;;;17.92;4.43;;;15.50;99.90;;;;;;5052245;28;20102;-64
2022/11/08 12:51:14;;;;;;;18.63;3.78;;;15.50;99.90;;;;;;5052464;28;20057;-63
2022/11/08 12:53:40;;;;;;;16.95;3.80;;;15.50;99.90;;;;;;5052989;28;20051;-62
2022/11/08 12:56:07;;;;;;;18.90;3.85;;;15.40;99.90;;;;;;5053852;28;20106;-64
2022/11/08 12:58:34;;;;;;;21.45;4.22;;;15.40;99.90;;;;;;5053389;28;20041;-61